sensor_id;sensor_type;location;lat;lon;timestamp;pressure;altitude;pressure_sealevel;temperature;humidity
29163;BME280;20331;53.144;8.208;2023-07-28T00:03:43;100277.84;;;18.53;100.00
29163;BME280;20331;53.144;8.208;2023-07-28T00:14:05;100283.94;;;18.54;100.00
29163;BME280;20331;53.144;8.208;2023-07-28T00:24:26;100294.59;;;18.63;100.00
29163;BME280;20331;53.144;8.208;2023-07-28T00:34:47;100303.44;;;18.62;100.00
29163;BME280;20331;53.144;8.208;2023-07-28T00:45:09;100288.63;;;18.61;100.00
29163;BME280;20331;53.144;8.208;2023-07-28T00:55:31;100298.63;;;18.56;100.00
29163;BME280;20331;53.144;8.208;2023-07-28T01:16:17;100282.88;;;18.56;100.00
29163;BME280;20331;53.144;8.208;2023-07-28T01:26:38;100277.66;;;18.56;100.00
29163;BME280;20331;53.144;8.208;2023-07-28T01:37:01;100282.78;;;18.58;100.00
29163;BME280;20331;53.144;8.208;2023-07-28T01:47:22;100294.09;;;18.58;100.00
29163;BME280;20331;53.144;8.208;2023-07-28T01:58:00;100294.22;;;18.57;100.00
29163;BME280;20331;53.144;8.208;2023-07-28T02:08:21;100305.31;;;18.48;100.00
29163;BME280;20331;53.144;8.208;2023-07-28T02:18:45;100288.78;;;18.47;100.00
29163;BME280;20331;53.144;8.208;2023-07-28T02:29:06;100303.66;;;18.47;100.00
29163;BME280;20331;53.144;8.208;2023-07-28T02:39:27;100304.69;;;18.44;100.00
29163;BME280;20331;53.144;8.208;2023-07-28T02:49:50;100307.84;;;18.49;100.00
29163;BME280;20331;53.144;8.208;2023-07-28T03:00:11;100313.72;;;18.53;100.00
29163;BME280;20331;53.144;8.208;2023-07-28T03:10:33;100322.94;;;18.58;100.00
29163;BME280;20331;53.144;8.208;2023-07-28T03:20:54;100327.31;;;18.58;100.00
29163;BME280;20331;53.144;8.208;2023-07-28T03:31:16;100343.66;;;18.61;100.00
29163;BME280;20331;53.144;8.208;2023-07-28T03:41:37;100329.63;;;18.62;100.00
29163;BME280;20331;53.144;8.208;2023-07-28T03:51:59;100334.88;;;18.62;100.00
29163;BME280;20331;53.144;8.208;2023-07-28T04:02:20;100347.03;;;18.63;100.00
29163;BME280;20331;53.144;8.208;2023-07-28T04:12:42;100353.84;;;18.66;100.00
29163;BME280;20331;53.144;8.208;2023-07-28T04:23:03;100358.00;;;18.68;100.00
29163;BME280;20331;53.144;8.208;2023-07-28T04:33:25;100368.63;;;18.67;100.00
29163;BME280;20331;53.144;8.208;2023-07-28T04:43:46;100371.13;;;18.68;100.00
29163;BME280;20331;53.144;8.208;2023-07-28T04:54:07;100373.44;;;18.73;100.00
29163;BME280;20331;53.144;8.208;2023-07-28T05:04:29;100377.59;;;18.75;100.00
29163;BME280;20331;53.144;8.208;2023-07-28T05:14:51;100385.28;;;18.78;100.00
29163;BME280;20331;53.144;8.208;2023-07-28T05:25:12;100393.13;;;18.78;100.00
29163;BME280;20331;53.144;8.208;2023-07-28T05:35:33;100391.00;;;18.83;100.00
29163;BME280;20331;53.144;8.208;2023-07-28T05:45:56;100397.59;;;18.89;100.00
29163;BME280;20331;53.144;8.208;2023-07-28T05:56:17;100406.31;;;18.89;100.00
29163;BME280;20331;53.144;8.208;2023-07-28T06:06:39;100417.53;;;18.91;100.00
29163;BME280;20331;53.144;8.208;2023-07-28T06:17:01;100414.47;;;18.97;100.00
29163;BME280;20331;53.144;8.208;2023-07-28T06:27:22;100423.06;;;18.99;100.00
29163;BME280;20331;53.144;8.208;2023-07-28T06:37:44;100435.03;;;19.03;100.00
29163;BME280;20331;53.144;8.208;2023-07-28T06:48:05;100454.13;;;19.05;100.00
29163;BME280;20331;53.144;8.208;2023-07-28T06:58:27;100461.75;;;19.08;100.00
29163;BME280;20331;53.144;8.208;2023-07-28T07:08:48;100480.66;;;19.14;100.00
29163;BME280;20331;53.144;8.208;2023-07-28T07:19:10;100493.31;;;19.20;100.00
29163;BME280;20331;53.144;8.208;2023-07-28T07:29:31;100492.50;;;19.32;100.00
29163;BME280;20331;53.144;8.208;2023-07-28T07:39:52;100506.34;;;19.34;100.00
29163;BME280;20331;53.144;8.208;2023-07-28T07:50:14;100506.41;;;19.45;100.00
29163;BME280;20331;53.144;8.208;2023-07-28T08:00:36;100518.91;;;19.41;100.00
29163;BME280;20331;53.144;8.208;2023-07-28T08:10:58;100536.44;;;19.41;100.00
29163;BME280;20331;53.144;8.208;2023-07-28T08:21:19;100547.22;;;19.49;100.00
29163;BME280;20331;53.144;8.208;2023-07-28T08:31:41;100551.63;;;19.61;100.00
29163;BME280;20331;53.144;8.208;2023-07-28T08:42:03;100561.41;;;19.82;100.00
29163;BME280;20331;53.144;8.208;2023-07-28T08:52:25;100571.13;;;19.93;100.00
29163;BME280;20331;53.144;8.208;2023-07-28T09:02:48;100583.22;;;19.95;100.00
29163;BME280;20331;53.144;8.208;2023-07-28T09:13:10;100590.31;;;20.06;100.00
29163;BME280;20331;53.144;8.208;2023-07-28T09:23:38;100598.91;;;20.55;100.00
29163;BME280;20331;53.144;8.208;2023-07-28T09:33:59;100584.88;;;20.78;100.00
29163;BME280;20331;53.144;8.208;2023-07-28T09:44:21;100600.41;;;20.81;100.00
29163;BME280;20331;53.144;8.208;2023-07-28T09:54:43;100609.72;;;20.74;100.00
29163;BME280;20331;53.144;8.208;2023-07-28T10:05:07;100620.47;;;20.71;100.00
29163;BME280;20331;53.144;8.208;2023-07-28T10:15:29;100627.47;;;20.49;100.00
29163;BME280;20331;53.144;8.208;2023-07-28T10:25:58;100633.56;;;20.60;100.00
29163;BME280;20331;53.144;8.208;2023-07-28T10:46:46;100641.91;;;21.57;95.52
29163;BME280;20331;53.144;8.208;2023-07-28T10:57:08;100638.56;;;21.66;94.84
29163;BME280;20331;53.144;8.208;2023-07-28T11:07:29;100648.13;;;21.67;94.00
29163;BME280;20331;53.144;8.208;2023-07-28T11:17:51;100649.94;;;21.66;95.57
29163;BME280;20331;53.144;8.208;2023-07-28T11:28:13;100657.84;;;21.66;94.42
29163;BME280;20331;53.144;8.208;2023-07-28T11:38:35;100659.13;;;21.72;94.64
29163;BME280;20331;53.144;8.208;2023-07-28T11:49:17;100662.38;;;21.75;95.95
29163;BME280;20331;53.144;8.208;2023-07-28T11:59:45;100678.19;;;21.97;94.12
29163;BME280;20331;53.144;8.208;2023-07-28T12:10:07;100674.41;;;22.33;92.13
29163;BME280;20331;53.144;8.208;2023-07-28T12:20:34;100669.84;;;22.78;89.60
29163;BME280;20331;53.144;8.208;2023-07-28T12:30:59;100687.63;;;22.85;89.50
29163;BME280;20331;53.144;8.208;2023-07-28T12:41:22;100691.25;;;22.84;90.11
29163;BME280;20331;53.144;8.208;2023-07-28T12:52:01;100697.47;;;22.63;90.18
29163;BME280;20331;53.144;8.208;2023-07-28T13:02:24;100694.16;;;23.02;88.27
29163;BME280;20331;53.144;8.208;2023-07-28T13:12:46;100700.66;;;23.19;86.31
29163;BME280;20331;53.144;8.208;2023-07-28T13:23:10;100700.88;;;23.27;86.65
29163;BME280;20331;53.144;8.208;2023-07-28T13:33:32;100701.44;;;23.10;88.12
29163;BME280;20331;53.144;8.208;2023-07-28T13:43:53;100696.28;;;23.08;84.46
29163;BME280;20331;53.144;8.208;2023-07-28T13:54:22;100684.19;;;23.47;82.83
29163;BME280;20331;53.144;8.208;2023-07-28T14:04:44;100688.75;;;23.45;82.43
29163;BME280;20331;53.144;8.208;2023-07-28T14:15:06;100698.03;;;23.19;85.06
29163;BME280;20331;53.144;8.208;2023-07-28T14:25:28;100694.28;;;23.21;82.41
29163;BME280;20331;53.144;8.208;2023-07-28T14:35:50;100714.56;;;23.21;84.32
29163;BME280;20331;53.144;8.208;2023-07-28T14:46:11;100709.22;;;23.11;84.99
29163;BME280;20331;53.144;8.208;2023-07-28T14:56:33;100707.69;;;23.09;85.70
29163;BME280;20331;53.144;8.208;2023-07-28T15:06:54;100710.41;;;23.18;87.23
29163;BME280;20331;53.144;8.208;2023-07-28T15:17:16;100709.19;;;23.43;86.95
29163;BME280;20331;53.144;8.208;2023-07-28T15:27:37;100706.78;;;23.19;88.49
29163;BME280;20331;53.144;8.208;2023-07-28T15:37:59;100714.41;;;23.13;88.98
29163;BME280;20331;53.144;8.208;2023-07-28T15:48:20;100700.94;;;23.16;87.01
29163;BME280;20331;53.144;8.208;2023-07-28T15:58:44;100718.63;;;23.25;83.91
29163;BME280;20331;53.144;8.208;2023-07-28T16:09:06;100710.59;;;23.26;86.23
29163;BME280;20331;53.144;8.208;2023-07-28T16:19:37;100721.81;;;23.39;86.13
29163;BME280;20331;53.144;8.208;2023-07-28T16:29:58;100716.19;;;23.83;83.06
29163;BME280;20331;53.144;8.208;2023-07-28T16:40:20;100709.81;;;23.86;84.75
29163;BME280;20331;53.144;8.208;2023-07-28T16:50:41;100707.19;;;23.95;85.17
29163;BME280;20331;53.144;8.208;2023-07-28T17:01:03;100706.00;;;23.79;82.67
29163;BME280;20331;53.144;8.208;2023-07-28T17:11:24;100696.84;;;23.83;85.23
29163;BME280;20331;53.144;8.208;2023-07-28T17:21:46;100708.84;;;23.87;84.84
29163;BME280;20331;53.144;8.208;2023-07-28T17:32:07;100719.59;;;23.65;85.80
29163;BME280;20331;53.144;8.208;2023-07-28T17:42:31;100716.19;;;23.53;84.68
29163;BME280;20331;53.144;8.208;2023-07-28T17:52:53;100727.25;;;23.38;85.61
29163;BME280;20331;53.144;8.208;2023-07-28T18:03:14;100729.69;;;23.30;86.47
29163;BME280;20331;53.144;8.208;2023-07-28T18:13:37;100726.63;;;23.14;86.91
29163;BME280;20331;53.144;8.208;2023-07-28T18:23:58;100722.50;;;23.00;88.14
29163;BME280;20331;53.144;8.208;2023-07-28T18:34:19;100733.22;;;22.87;88.49
29163;BME280;20331;53.144;8.208;2023-07-28T18:44:42;100741.66;;;22.81;88.94
29163;BME280;20331;53.144;8.208;2023-07-28T18:55:04;100746.00;;;22.71;89.06
29163;BME280;20331;53.144;8.208;2023-07-28T19:05:26;100748.56;;;22.62;90.43
29163;BME280;20331;53.144;8.208;2023-07-28T19:15:47;100767.75;;;22.42;93.35
29163;BME280;20331;53.144;8.208;2023-07-28T19:26:09;100775.22;;;22.15;95.00
29163;BME280;20331;53.144;8.208;2023-07-28T19:36:30;100770.53;;;21.85;97.01
29163;BME280;20331;53.144;8.208;2023-07-28T19:46:52;100782.34;;;21.68;97.10
29163;BME280;20331;53.144;8.208;2023-07-28T19:57:13;100774.94;;;21.51;98.28
29163;BME280;20331;53.144;8.208;2023-07-28T20:07:35;100802.25;;;21.27;98.82
29163;BME280;20331;53.144;8.208;2023-07-28T20:17:56;100810.97;;;21.16;98.12
29163;BME280;20331;53.144;8.208;2023-07-28T20:28:18;100813.66;;;21.04;98.81
29163;BME280;20331;53.144;8.208;2023-07-28T20:38:39;100820.97;;;20.87;98.37
29163;BME280;20331;53.144;8.208;2023-07-28T20:49:01;100825.53;;;20.73;99.28
29163;BME280;20331;53.144;8.208;2023-07-28T20:59:22;100813.13;;;20.62;99.56
29163;BME280;20331;53.144;8.208;2023-07-28T21:09:44;100808.22;;;20.58;100.00
29163;BME280;20331;53.144;8.208;2023-07-28T21:20:06;100803.81;;;20.46;100.00
29163;BME280;20331;53.144;8.208;2023-07-28T21:30:28;100792.06;;;20.39;100.00
29163;BME280;20331;53.144;8.208;2023-07-28T21:40:49;100790.84;;;20.32;100.00
29163;BME280;20331;53.144;8.208;2023-07-28T21:51:11;100785.19;;;20.25;100.00
29163;BME280;20331;53.144;8.208;2023-07-28T22:01:33;100787.69;;;20.14;100.00
29163;BME280;20331;53.144;8.208;2023-07-28T22:11:54;100786.84;;;20.14;100.00
29163;BME280;20331;53.144;8.208;2023-07-28T22:22:16;100818.78;;;20.08;98.29
29163;BME280;20331;53.144;8.208;2023-07-28T22:32:37;100809.78;;;19.99;100.00
29163;BME280;20331;53.144;8.208;2023-07-28T22:42:59;100797.06;;;19.93;100.00
29163;BME280;20331;53.144;8.208;2023-07-28T22:53:20;100797.47;;;19.87;100.00
29163;BME280;20331;53.144;8.208;2023-07-28T23:03:42;100794.44;;;19.80;100.00
29163;BME280;20331;53.144;8.208;2023-07-28T23:14:03;100789.19;;;19.80;100.00
29163;BME280;20331;53.144;8.208;2023-07-28T23:24:25;100786.88;;;19.76;100.00
29163;BME280;20331;53.144;8.208;2023-07-28T23:34:46;100789.41;;;19.77;100.00
29163;BME280;20331;53.144;8.208;2023-07-28T23:45:08;100790.22;;;19.78;100.00
29163;BME280;20331;53.144;8.208;2023-07-28T23:55:29;100784.66;;;19.70;100.00
